sensor_id;sensor_type;location;lat;lon;timestamp;pressure;altitude;pressure_sealevel;temperature;humidity
32733;BME280;11867;51.198;11.966;2023-03-08T00:00:58;98832.03;;;2.69;98.24
32733;BME280;11867;51.198;11.966;2023-03-08T00:02:00;98826.16;;;2.82;98.28
32733;BME280;11867;51.198;11.966;2023-03-08T00:03:02;98829.91;;;2.86;97.64
32733;BME280;11867;51.198;11.966;2023-03-08T00:04:04;98839.31;;;2.78;97.64
32733;BME280;11867;51.198;11.966;2023-03-08T00:05:07;98839.00;;;2.65;97.20
32733;BME280;11867;51.198;11.966;2023-03-08T00:06:12;98855.41;;;2.58;97.57
32733;BME280;11867;51.198;11.966;2023-03-08T00:07:14;98848.91;;;2.43;98.60
32733;BME280;11867;51.198;11.966;2023-03-08T00:08:17;98843.66;;;2.79;98.53
32733;BME280;11867;51.198;11.966;2023-03-08T00:09:19;98840.44;;;3.03;97.57
32733;BME280;11867;51.198;11.966;2023-03-08T00:10:22;98840.72;;;3.07;97.16
32733;BME280;11867;51.198;11.966;2023-03-08T00:11:24;98836.94;;;3.18;96.01
32733;BME280;11867;51.198;11.966;2023-03-08T00:12:27;98841.53;;;3.38;95.21
32733;BME280;11867;51.198;11.966;2023-03-08T00:13:29;98836.94;;;3.28;94.31
32733;BME280;11867;51.198;11.966;2023-03-08T00:14:31;98840.19;;;3.30;94.23
32733;BME280;11867;51.198;11.966;2023-03-08T00:15:35;98839.63;;;3.28;93.71
32733;BME280;11867;51.198;11.966;2023-03-08T00:16:37;98847.44;;;3.35;93.76
32733;BME280;11867;51.198;11.966;2023-03-08T00:17:39;98845.03;;;3.38;93.44
32733;BME280;11867;51.198;11.966;2023-03-08T00:18:42;98840.16;;;3.51;93.19
32733;BME280;11867;51.198;11.966;2023-03-08T00:19:43;98841.50;;;3.43;92.34
32733;BME280;11867;51.198;11.966;2023-03-08T00:20:46;98837.19;;;3.47;92.37
32733;BME280;11867;51.198;11.966;2023-03-08T00:21:49;98838.28;;;3.46;92.46
32733;BME280;11867;51.198;11.966;2023-03-08T00:22:51;98833.47;;;3.22;92.97
32733;BME280;11867;51.198;11.966;2023-03-08T00:23:53;98835.06;;;2.98;93.63
32733;BME280;11867;51.198;11.966;2023-03-08T00:24:56;98840.16;;;2.99;94.46
32733;BME280;11867;51.198;11.966;2023-03-08T00:25:57;98844.22;;;2.92;94.48
32733;BME280;11867;51.198;11.966;2023-03-08T00:27:00;98850.41;;;3.08;94.55
32733;BME280;11867;51.198;11.966;2023-03-08T00:28:02;98848.25;;;3.05;94.80
32733;BME280;11867;51.198;11.966;2023-03-08T00:29:04;98848.78;;;3.12;94.08
32733;BME280;11867;51.198;11.966;2023-03-08T00:30:08;98847.72;;;3.13;94.21
32733;BME280;11867;51.198;11.966;2023-03-08T00:31:12;98848.25;;;3.15;93.98
32733;BME280;11867;51.198;11.966;2023-03-08T00:32:14;98849.88;;;3.26;93.82
32733;BME280;11867;51.198;11.966;2023-03-08T00:33:17;98850.16;;;3.30;92.89
32733;BME280;11867;51.198;11.966;2023-03-08T00:34:20;98852.84;;;3.14;93.56
32733;BME280;11867;51.198;11.966;2023-03-08T00:35:21;98850.69;;;2.96;94.53
32733;BME280;11867;51.198;11.966;2023-03-08T00:36:24;98849.19;;;2.42;96.69
32733;BME280;11867;51.198;11.966;2023-03-08T00:37:27;98849.19;;;2.47;97.18
32733;BME280;11867;51.198;11.966;2023-03-08T00:38:30;98847.63;;;2.56;97.49
32733;BME280;11867;51.198;11.966;2023-03-08T00:39:33;98854.13;;;2.81;96.80
32733;BME280;11867;51.198;11.966;2023-03-08T00:40:35;98858.44;;;2.87;96.37
32733;BME280;11867;51.198;11.966;2023-03-08T00:41:37;98856.06;;;3.01;96.18
32733;BME280;11867;51.198;11.966;2023-03-08T00:42:39;98863.34;;;3.11;95.07
32733;BME280;11867;51.198;11.966;2023-03-08T00:43:41;98864.41;;;2.94;95.02
32733;BME280;11867;51.198;11.966;2023-03-08T00:44:44;98864.03;;;2.55;96.68
32733;BME280;11867;51.198;11.966;2023-03-08T00:45:46;98860.28;;;2.61;97.30
32733;BME280;11867;51.198;11.966;2023-03-08T00:46:53;98867.81;;;2.59;97.22
32733;BME280;11867;51.198;11.966;2023-03-08T00:47:54;98866.50;;;2.72;96.92
32733;BME280;11867;51.198;11.966;2023-03-08T00:48:57;98858.41;;;2.72;96.48
32733;BME280;11867;51.198;11.966;2023-03-08T00:49:59;98865.69;;;2.71;96.51
32733;BME280;11867;51.198;11.966;2023-03-08T00:51:01;98861.13;;;2.87;96.48
32733;BME280;11867;51.198;11.966;2023-03-08T00:52:03;98860.63;;;2.90;96.12
32733;BME280;11867;51.198;11.966;2023-03-08T00:53:07;98858.22;;;3.04;95.44
32733;BME280;11867;51.198;11.966;2023-03-08T00:54:08;98857.41;;;3.03;95.15
32733;BME280;11867;51.198;11.966;2023-03-08T00:55:11;98850.41;;;3.13;94.90
32733;BME280;11867;51.198;11.966;2023-03-08T00:56:13;98853.06;;;2.87;94.91
32733;BME280;11867;51.198;11.966;2023-03-08T00:57:15;98854.09;;;2.71;96.22
32733;BME280;11867;51.198;11.966;2023-03-08T00:58:17;98860.00;;;2.57;96.34
32733;BME280;11867;51.198;11.966;2023-03-08T00:59:20;98853.56;;;2.69;96.67
32733;BME280;11867;51.198;11.966;2023-03-08T01:00:23;98859.22;;;2.72;96.50
32733;BME280;11867;51.198;11.966;2023-03-08T01:01:24;98860.63;;;2.90;96.53
32733;BME280;11867;51.198;11.966;2023-03-08T01:02:27;98859.25;;;2.82;95.71
32733;BME280;11867;51.198;11.966;2023-03-08T01:03:28;98856.53;;;2.72;96.29
32733;BME280;11867;51.198;11.966;2023-03-08T01:04:31;98856.84;;;2.86;95.98
32733;BME280;11867;51.198;11.966;2023-03-08T01:05:38;98866.38;;;2.36;97.89
32733;BME280;11867;51.198;11.966;2023-03-08T01:06:40;98870.22;;;2.50;97.96
32733;BME280;11867;51.198;11.966;2023-03-08T01:07:43;98867.72;;;2.38;98.36
32733;BME280;11867;51.198;11.966;2023-03-08T01:08:47;98869.06;;;2.36;98.56
32733;BME280;11867;51.198;11.966;2023-03-08T01:09:53;98874.72;;;2.39;98.15
32733;BME280;11867;51.198;11.966;2023-03-08T01:10:56;98861.59;;;2.48;98.38
32733;BME280;11867;51.198;11.966;2023-03-08T01:11:59;98874.94;;;2.28;98.35
32733;BME280;11867;51.198;11.966;2023-03-08T01:13:03;98880.97;;;2.50;98.25
32733;BME280;11867;51.198;11.966;2023-03-08T01:14:06;98877.13;;;2.36;98.04
32733;BME280;11867;51.198;11.966;2023-03-08T01:15:10;98878.81;;;2.57;98.29
32733;BME280;11867;51.198;11.966;2023-03-08T01:16:16;98889.63;;;2.62;97.29
32733;BME280;11867;51.198;11.966;2023-03-08T01:17:19;98889.59;;;2.57;97.31
32733;BME280;11867;51.198;11.966;2023-03-08T01:18:21;98896.03;;;2.51;96.98
32733;BME280;11867;51.198;11.966;2023-03-08T01:19:23;98892.44;;;2.35;97.36
32733;BME280;11867;51.198;11.966;2023-03-08T01:20:25;98890.25;;;2.27;97.90
32733;BME280;11867;51.198;11.966;2023-03-08T01:21:28;98891.06;;;2.22;98.68
32733;BME280;11867;51.198;11.966;2023-03-08T01:22:30;98884.06;;;2.21;99.10
32733;BME280;11867;51.198;11.966;2023-03-08T01:23:33;98891.34;;;2.26;98.78
32733;BME280;11867;51.198;11.966;2023-03-08T01:24:36;98891.72;;;2.50;98.75
32733;BME280;11867;51.198;11.966;2023-03-08T01:25:38;98895.25;;;2.61;97.54
32733;BME280;11867;51.198;11.966;2023-03-08T01:26:40;98901.09;;;2.42;97.25
32733;BME280;11867;51.198;11.966;2023-03-08T01:27:42;98904.56;;;2.33;97.99
32733;BME280;11867;51.198;11.966;2023-03-08T01:28:44;98894.28;;;2.25;98.46
32733;BME280;11867;51.198;11.966;2023-03-08T01:29:46;98901.75;;;2.12;99.26
32733;BME280;11867;51.198;11.966;2023-03-08T01:30:48;98896.91;;;2.09;99.59
32733;BME280;11867;51.198;11.966;2023-03-08T01:31:50;98900.66;;;2.08;99.64
32733;BME280;11867;51.198;11.966;2023-03-08T01:32:52;98892.28;;;2.05;100.00
32733;BME280;11867;51.198;11.966;2023-03-08T01:33:55;98895.75;;;1.95;100.00
32733;BME280;11867;51.198;11.966;2023-03-08T01:34:56;98888.78;;;2.04;100.00
32733;BME280;11867;51.198;11.966;2023-03-08T01:36:04;98898.50;;;2.10;100.00
32733;BME280;11867;51.198;11.966;2023-03-08T01:37:06;98889.16;;;2.23;100.00
32733;BME280;11867;51.198;11.966;2023-03-08T01:38:08;98885.44;;;2.29;99.40
32733;BME280;11867;51.198;11.966;2023-03-08T01:39:10;98881.47;;;2.42;99.23
32733;BME280;11867;51.198;11.966;2023-03-08T01:40:14;98888.13;;;2.29;98.82
32733;BME280;11867;51.198;11.966;2023-03-08T01:41:18;98874.97;;;2.33;98.44
32733;BME280;11867;51.198;11.966;2023-03-08T01:42:20;98874.41;;;2.26;98.29
32733;BME280;11867;51.198;11.966;2023-03-08T01:43:24;98884.28;;;2.15;98.22
32733;BME280;11867;51.198;11.966;2023-03-08T01:44:28;98884.81;;;2.12;98.94
32733;BME280;11867;51.198;11.966;2023-03-08T01:46:00;98882.38;;;2.05;99.28
32733;BME280;11867;51.198;11.966;2023-03-08T01:47:07;98888.94;;;2.30;99.28
32733;BME280;11867;51.198;11.966;2023-03-08T01:48:11;98892.44;;;2.30;98.15
32733;BME280;11867;51.198;11.966;2023-03-08T01:49:16;98885.91;;;2.16;97.74
32733;BME280;11867;51.198;11.966;2023-03-08T01:50:21;98887.06;;;2.30;98.00
32733;BME280;11867;51.198;11.966;2023-03-08T01:51:29;98883.06;;;2.38;97.45
32733;BME280;11867;51.198;11.966;2023-03-08T01:52:36;98880.28;;;2.17;97.44
32733;BME280;11867;51.198;11.966;2023-03-08T01:53:39;98876.22;;;2.15;97.62
32733;BME280;11867;51.198;11.966;2023-03-08T01:54:43;98868.97;;;2.15;97.80
32733;BME280;11867;51.198;11.966;2023-03-08T01:55:48;98873.56;;;2.25;97.49
32733;BME280;11867;51.198;11.966;2023-03-08T01:56:53;98872.47;;;2.16;97.27
32733;BME280;11867;51.198;11.966;2023-03-08T01:57:55;98868.16;;;2.15;97.56
32733;BME280;11867;51.198;11.966;2023-03-08T01:58:59;98870.94;;;2.30;97.38
32733;BME280;11867;51.198;11.966;2023-03-08T02:00:06;98868.03;;;2.42;96.96
32733;BME280;11867;51.198;11.966;2023-03-08T02:01:10;98873.06;;;2.28;95.94
32733;BME280;11867;51.198;11.966;2023-03-08T02:02:12;98865.84;;;2.39;96.38
32733;BME280;11867;51.198;11.966;2023-03-08T02:03:15;98875.59;;;2.50;96.27
32733;BME280;11867;51.198;11.966;2023-03-08T02:04:16;98879.19;;;2.18;96.01
32733;BME280;11867;51.198;11.966;2023-03-08T02:05:19;98885.38;;;2.19;96.01
32733;BME280;11867;51.198;11.966;2023-03-08T02:06:22;98883.41;;;2.04;96.28
32733;BME280;11867;51.198;11.966;2023-03-08T02:07:24;98877.00;;;2.05;96.81
32733;BME280;11867;51.198;11.966;2023-03-08T02:08:26;98875.09;;;2.06;96.76
32733;BME280;11867;51.198;11.966;2023-03-08T02:09:28;98879.69;;;2.10;97.31
32733;BME280;11867;51.198;11.966;2023-03-08T02:10:30;98875.84;;;1.96;97.26
32733;BME280;11867;51.198;11.966;2023-03-08T02:11:35;98877.97;;;1.94;97.66
32733;BME280;11867;51.198;11.966;2023-03-08T02:12:39;98875.91;;;2.06;97.62
32733;BME280;11867;51.198;11.966;2023-03-08T02:13:42;98878.94;;;2.25;97.37
32733;BME280;11867;51.198;11.966;2023-03-08T02:14:44;98880.94;;;2.40;96.69
32733;BME280;11867;51.198;11.966;2023-03-08T02:15:47;98869.31;;;1.81;97.84
32733;BME280;11867;51.198;11.966;2023-03-08T02:16:50;98878.44;;;1.80;98.82
32733;BME280;11867;51.198;11.966;2023-03-08T02:17:52;98874.72;;;1.87;98.80
32733;BME280;11867;51.198;11.966;2023-03-08T02:18:56;98876.56;;;1.76;98.73
32733;BME280;11867;51.198;11.966;2023-03-08T02:20:01;98875.28;;;1.89;98.61
32733;BME280;11867;51.198;11.966;2023-03-08T02:21:08;98873.47;;;2.05;98.19
32733;BME280;11867;51.198;11.966;2023-03-08T02:22:13;98872.44;;;2.11;97.90
32733;BME280;11867;51.198;11.966;2023-03-08T02:23:18;98875.13;;;2.11;97.70
32733;BME280;11867;51.198;11.966;2023-03-08T02:24:23;98874.50;;;1.93;97.27
32733;BME280;11867;51.198;11.966;2023-03-08T02:25:25;98876.75;;;2.17;97.76
32733;BME280;11867;51.198;11.966;2023-03-08T02:26:28;98877.66;;;2.33;97.51
32733;BME280;11867;51.198;11.966;2023-03-08T02:27:30;98874.66;;;2.29;96.67
32733;BME280;11867;51.198;11.966;2023-03-08T02:28:32;98877.31;;;2.19;96.65
32733;BME280;11867;51.198;11.966;2023-03-08T02:29:34;98881.88;;;2.18;96.88
32733;BME280;11867;51.198;11.966;2023-03-08T02:30:37;98876.06;;;2.37;97.09
32733;BME280;11867;51.198;11.966;2023-03-08T02:31:39;98869.88;;;2.41;96.31
32733;BME280;11867;51.198;11.966;2023-03-08T02:32:41;98879.28;;;2.39;96.08
32733;BME280;11867;51.198;11.966;2023-03-08T02:33:43;98878.44;;;2.28;96.44
32733;BME280;11867;51.198;11.966;2023-03-08T02:34:45;98875.69;;;1.70;98.37
32733;BME280;11867;51.198;11.966;2023-03-08T02:35:47;98873.72;;;1.98;98.68
32733;BME280;11867;51.198;11.966;2023-03-08T02:36:49;98874.56;;;2.09;98.75
32733;BME280;11867;51.198;11.966;2023-03-08T02:37:51;98876.50;;;2.18;98.14
32733;BME280;11867;51.198;11.966;2023-03-08T02:38:55;98869.88;;;2.36;97.55
32733;BME280;11867;51.198;11.966;2023-03-08T02:39:56;98878.53;;;2.49;97.23
32733;BME280;11867;51.198;11.966;2023-03-08T02:40:59;98874.19;;;2.42;96.92
32733;BME280;11867;51.198;11.966;2023-03-08T02:42:00;98873.66;;;2.46;96.23
32733;BME280;11867;51.198;11.966;2023-03-08T02:43:03;98865.34;;;2.42;96.03
32733;BME280;11867;51.198;11.966;2023-03-08T02:44:05;98866.84;;;2.22;97.00
32733;BME280;11867;51.198;11.966;2023-03-08T02:45:08;98868.19;;;2.20;97.90
32733;BME280;11867;51.198;11.966;2023-03-08T02:46:10;98862.56;;;2.27;97.50
32733;BME280;11867;51.198;11.966;2023-03-08T02:47:13;98860.47;;;2.39;97.33
32733;BME280;11867;51.198;11.966;2023-03-08T02:48:15;98853.84;;;2.67;96.81
32733;BME280;11867;51.198;11.966;2023-03-08T02:49:18;98854.34;;;2.64;95.26
32733;BME280;11867;51.198;11.966;2023-03-08T02:50:19;98867.00;;;2.00;97.28
32733;BME280;11867;51.198;11.966;2023-03-08T02:51:22;98860.31;;;2.08;98.40
32733;BME280;11867;51.198;11.966;2023-03-08T02:52:23;98861.81;;;2.36;97.89
32733;BME280;11867;51.198;11.966;2023-03-08T02:53:26;98859.63;;;2.28;97.40
32733;BME280;11867;51.198;11.966;2023-03-08T02:54:30;98855.34;;;2.32;96.75
32733;BME280;11867;51.198;11.966;2023-03-08T02:55:31;98854.91;;;2.61;96.62
32733;BME280;11867;51.198;11.966;2023-03-08T02:56:36;98849.81;;;2.80;95.33
32733;BME280;11867;51.198;11.966;2023-03-08T02:57:37;98856.03;;;2.91;94.56
32733;BME280;11867;51.198;11.966;2023-03-08T02:58:40;98861.41;;;2.80;94.21
32733;BME280;11867;51.198;11.966;2023-03-08T02:59:43;98855.19;;;2.70;94.33
32733;BME280;11867;51.198;11.966;2023-03-08T03:00:44;98855.66;;;2.51;95.39
32733;BME280;11867;51.198;11.966;2023-03-08T03:01:47;98861.88;;;2.62;95.45
32733;BME280;11867;51.198;11.966;2023-03-08T03:02:48;98863.25;;;2.75;94.89
32733;BME280;11867;51.198;11.966;2023-03-08T03:03:52;98862.47;;;2.85;94.40
32733;BME280;11867;51.198;11.966;2023-03-08T03:04:54;98871.91;;;2.82;94.37
32733;BME280;11867;51.198;11.966;2023-03-08T03:05:56;98868.44;;;2.92;93.84
32733;BME280;11867;51.198;11.966;2023-03-08T03:06:59;98857.41;;;3.03;93.44
32733;BME280;11867;51.198;11.966;2023-03-08T03:08:01;98863.03;;;2.97;92.92
32733;BME280;11867;51.198;11.966;2023-03-08T03:09:05;98857.13;;;3.05;92.74
32733;BME280;11867;51.198;11.966;2023-03-08T03:10:11;98861.47;;;3.16;92.57
32733;BME280;11867;51.198;11.966;2023-03-08T03:11:15;98860.09;;;3.03;92.52
32733;BME280;11867;51.198;11.966;2023-03-08T03:12:17;98862.88;;;2.35;94.28
32733;BME280;11867;51.198;11.966;2023-03-08T03:13:19;98867.44;;;2.35;95.29
32733;BME280;11867;51.198;11.966;2023-03-08T03:14:21;98875.00;;;2.38;96.00
32733;BME280;11867;51.198;11.966;2023-03-08T03:15:23;98875.81;;;2.43;95.79
32733;BME280;11867;51.198;11.966;2023-03-08T03:16:26;98868.88;;;2.53;95.46
32733;BME280;11867;51.198;11.966;2023-03-08T03:17:28;98867.53;;;2.50;95.49
32733;BME280;11867;51.198;11.966;2023-03-08T03:18:31;98867.53;;;2.55;95.74
32733;BME280;11867;51.198;11.966;2023-03-08T03:19:32;98876.72;;;2.75;95.29
32733;BME280;11867;51.198;11.966;2023-03-08T03:20:35;98874.78;;;2.60;94.95
32733;BME280;11867;51.198;11.966;2023-03-08T03:21:37;98872.94;;;2.60;94.92
32733;BME280;11867;51.198;11.966;2023-03-08T03:22:40;98869.56;;;2.28;96.07
32733;BME280;11867;51.198;11.966;2023-03-08T03:23:42;98867.53;;;2.50;96.49
32733;BME280;11867;51.198;11.966;2023-03-08T03:24:44;98865.16;;;2.69;96.00
32733;BME280;11867;51.198;11.966;2023-03-08T03:25:47;98863.03;;;2.81;95.29
32733;BME280;11867;51.198;11.966;2023-03-08T03:26:50;98862.72;;;2.73;94.69
32733;BME280;11867;51.198;11.966;2023-03-08T03:27:53;98850.41;;;2.92;94.63
32733;BME280;11867;51.198;11.966;2023-03-08T03:28:56;98859.53;;;2.91;94.02
32733;BME280;11867;51.198;11.966;2023-03-08T03:29:59;98864.09;;;2.80;93.57
32733;BME280;11867;51.198;11.966;2023-03-08T03:31:05;98857.38;;;2.93;93.63
32733;BME280;11867;51.198;11.966;2023-03-08T03:32:07;98864.06;;;2.70;94.08
32733;BME280;11867;51.198;11.966;2023-03-08T03:33:09;98865.66;;;2.61;94.54
32733;BME280;11867;51.198;11.966;2023-03-08T03:34:11;98867.44;;;2.30;96.10
32733;BME280;11867;51.198;11.966;2023-03-08T03:35:13;98866.75;;;1.59;98.83
32733;BME280;11867;51.198;11.966;2023-03-08T03:36:16;98870.63;;;1.74;100.00
32733;BME280;11867;51.198;11.966;2023-03-08T03:37:19;98872.66;;;2.04;99.99
32733;BME280;11867;51.198;11.966;2023-03-08T03:38:21;98869.50;;;2.12;99.40
32733;BME280;11867;51.198;11.966;2023-03-08T03:39:24;98874.63;;;2.19;98.93
32733;BME280;11867;51.198;11.966;2023-03-08T03:40:25;98873.75;;;2.03;98.91
32733;BME280;11867;51.198;11.966;2023-03-08T03:41:29;98881.88;;;2.13;98.56
32733;BME280;11867;51.198;11.966;2023-03-08T03:42:30;98872.78;;;2.25;98.16
32733;BME280;11867;51.198;11.966;2023-03-08T03:43:33;98875.00;;;2.38;97.84
32733;BME280;11867;51.198;11.966;2023-03-08T03:44:35;98870.25;;;2.60;97.29
32733;BME280;11867;51.198;11.966;2023-03-08T03:45:38;98876.72;;;2.75;96.34
32733;BME280;11867;51.198;11.966;2023-03-08T03:46:40;98870.31;;;2.86;95.34
32733;BME280;11867;51.198;11.966;2023-03-08T03:47:42;98874.78;;;2.60;95.47
32733;BME280;11867;51.198;11.966;2023-03-08T03:48:46;98881.00;;;2.71;95.22
32733;BME280;11867;51.198;11.966;2023-03-08T03:49:47;98879.16;;;2.76;95.45
32733;BME280;11867;51.198;11.966;2023-03-08T03:50:54;98879.91;;;2.61;95.06
32733;BME280;11867;51.198;11.966;2023-03-08T03:51:56;98885.22;;;2.36;95.77
32733;BME280;11867;51.198;11.966;2023-03-08T03:52:58;98884.22;;;2.52;95.91
32733;BME280;11867;51.198;11.966;2023-03-08T03:54:00;98886.56;;;2.43;95.99
32733;BME280;11867;51.198;11.966;2023-03-08T03:55:03;98886.06;;;2.52;95.84
32733;BME280;11867;51.198;11.966;2023-03-08T03:56:06;98883.47;;;2.14;96.46
32733;BME280;11867;51.198;11.966;2023-03-08T03:57:11;98891.09;;;2.28;97.09
32733;BME280;11867;51.198;11.966;2023-03-08T03:58:12;98888.97;;;2.35;97.62
32733;BME280;11867;51.198;11.966;2023-03-08T03:59:14;98889.59;;;2.57;96.83
32733;BME280;11867;51.198;11.966;2023-03-08T04:00:16;98889.38;;;2.69;95.67
32733;BME280;11867;51.198;11.966;2023-03-08T04:01:21;98890.63;;;2.46;95.51
32733;BME280;11867;51.198;11.966;2023-03-08T04:02:24;98885.47;;;2.34;96.79
32733;BME280;11867;51.198;11.966;2023-03-08T04:03:27;98877.66;;;2.28;96.63
32733;BME280;11867;51.198;11.966;2023-03-08T04:04:28;98887.88;;;2.31;97.12
32733;BME280;11867;51.198;11.966;2023-03-08T04:05:31;98870.75;;;2.57;96.62
32733;BME280;11867;51.198;11.966;2023-03-08T04:06:33;98875.00;;;2.43;96.46
32733;BME280;11867;51.198;11.966;2023-03-08T04:07:35;98873.31;;;2.21;97.20
32733;BME280;11867;51.198;11.966;2023-03-08T04:08:37;98867.34;;;2.09;97.92
32733;BME280;11867;51.198;11.966;2023-03-08T04:09:42;98878.16;;;2.25;98.49
32733;BME280;11867;51.198;11.966;2023-03-08T04:10:44;98877.72;;;2.48;97.42
32733;BME280;11867;51.198;11.966;2023-03-08T04:11:46;98872.59;;;2.52;96.07
32733;BME280;11867;51.198;11.966;2023-03-08T04:12:49;98870.50;;;2.64;95.91
32733;BME280;11867;51.198;11.966;2023-03-08T04:13:52;98882.69;;;2.14;97.25
32733;BME280;11867;51.198;11.966;2023-03-08T04:14:54;98884.91;;;2.32;97.30
32733;BME280;11867;51.198;11.966;2023-03-08T04:15:56;98889.84;;;2.56;96.82
32733;BME280;11867;51.198;11.966;2023-03-08T04:16:58;98879.16;;;2.71;96.08
32733;BME280;11867;51.198;11.966;2023-03-08T04:18:00;98871.66;;;2.94;95.29
32733;BME280;11867;51.198;11.966;2023-03-08T04:19:05;98879.94;;;2.72;94.64
32733;BME280;11867;51.198;11.966;2023-03-08T04:20:09;98872.31;;;2.38;95.17
32733;BME280;11867;51.198;11.966;2023-03-08T04:21:12;98871.13;;;2.13;97.03
32733;BME280;11867;51.198;11.966;2023-03-08T04:22:14;98871.44;;;2.27;97.66
32733;BME280;11867;51.198;11.966;2023-03-08T04:23:16;98870.16;;;2.40;97.33
32733;BME280;11867;51.198;11.966;2023-03-08T04:24:18;98878.19;;;2.30;97.15
32733;BME280;11867;51.198;11.966;2023-03-08T04:25:20;98872.06;;;2.45;97.14
32733;BME280;11867;51.198;11.966;2023-03-08T04:26:23;98872.97;;;2.08;97.80
32733;BME280;11867;51.198;11.966;2023-03-08T04:27:24;98878.66;;;2.16;98.60
32733;BME280;11867;51.198;11.966;2023-03-08T04:28:28;98876.41;;;1.98;98.97
32733;BME280;11867;51.198;11.966;2023-03-08T04:29:30;98880.34;;;2.33;98.72
32733;BME280;11867;51.198;11.966;2023-03-08T04:30:33;98868.56;;;2.49;97.55
32733;BME280;11867;51.198;11.966;2023-03-08T04:31:34;98865.75;;;2.13;97.88
32733;BME280;11867;51.198;11.966;2023-03-08T04:32:37;98864.69;;;2.25;98.03
32733;BME280;11867;51.198;11.966;2023-03-08T04:33:39;98859.16;;;2.52;97.31
32733;BME280;11867;51.198;11.966;2023-03-08T04:34:41;98860.47;;;2.34;97.62
32733;BME280;11867;51.198;11.966;2023-03-08T04:35:43;98870.47;;;2.49;97.43
32733;BME280;11867;51.198;11.966;2023-03-08T04:36:45;98872.91;;;2.50;96.83
32733;BME280;11867;51.198;11.966;2023-03-08T04:37:48;98874.78;;;2.60;96.77
32733;BME280;11867;51.198;11.966;2023-03-08T04:38:50;98871.97;;;2.29;96.76
32733;BME280;11867;51.198;11.966;2023-03-08T04:39:53;98876.00;;;2.27;97.46
32733;BME280;11867;51.198;11.966;2023-03-08T04:40:54;98877.50;;;2.02;97.64
32733;BME280;11867;51.198;11.966;2023-03-08T04:42:05;98872.22;;;2.17;98.80
32733;BME280;11867;51.198;11.966;2023-03-08T04:43:07;98875.00;;;2.43;98.24
32733;BME280;11867;51.198;11.966;2023-03-08T04:44:11;98881.47;;;2.42;97.42
32733;BME280;11867;51.198;11.966;2023-03-08T04:45:13;98879.25;;;2.24;97.11
32733;BME280;11867;51.198;11.966;2023-03-08T04:46:17;98882.38;;;2.10;97.80
32733;BME280;11867;51.198;11.966;2023-03-08T04:47:19;98877.16;;;1.88;99.22
32733;BME280;11867;51.198;11.966;2023-03-08T04:48:21;98886.09;;;1.99;99.30
32733;BME280;11867;51.198;11.966;2023-03-08T04:49:26;98885.44;;;2.29;99.11
32733;BME280;11867;51.198;11.966;2023-03-08T04:50:29;98879.72;;;2.15;98.76
32733;BME280;11867;51.198;11.966;2023-03-08T04:51:30;98878.69;;;2.27;98.50
32733;BME280;11867;51.198;11.966;2023-03-08T04:52:33;98886.56;;;2.43;98.14
32733;BME280;11867;51.198;11.966;2023-03-08T04:53:35;98883.44;;;2.72;97.51
32733;BME280;11867;51.198;11.966;2023-03-08T04:54:39;98878.13;;;2.93;95.62
32733;BME280;11867;51.198;11.966;2023-03-08T04:55:41;98881.56;;;2.68;95.32
32733;BME280;11867;51.198;11.966;2023-03-08T04:56:43;98891.84;;;2.23;96.99
32733;BME280;11867;51.198;11.966;2023-03-08T04:57:45;98886.75;;;2.21;97.27
32733;BME280;11867;51.198;11.966;2023-03-08T04:58:47;98891.09;;;2.33;97.59
32733;BME280;11867;51.198;11.966;2023-03-08T04:59:51;98876.94;;;2.53;96.65
32733;BME280;11867;51.198;11.966;2023-03-08T05:00:52;98886.94;;;2.73;95.95
32733;BME280;11867;51.198;11.966;2023-03-08T05:01:55;98881.63;;;2.98;94.88
32733;BME280;11867;51.198;11.966;2023-03-08T05:02:56;98876.78;;;3.06;93.80
32733;BME280;11867;51.198;11.966;2023-03-08T05:03:59;98877.88;;;3.05;93.90
32733;BME280;11867;51.198;11.966;2023-03-08T05:05:00;98882.75;;;3.23;93.11
32733;BME280;11867;51.198;11.966;2023-03-08T05:06:05;98875.47;;;3.39;92.50
32733;BME280;11867;51.198;11.966;2023-03-08T05:07:07;98877.63;;;3.47;91.35
32733;BME280;11867;51.198;11.966;2023-03-08T05:08:09;98878.44;;;3.53;91.48
32733;BME280;11867;51.198;11.966;2023-03-08T05:09:10;98888.66;;;3.61;90.88
32733;BME280;11867;51.198;11.966;2023-03-08T05:10:14;98885.44;;;3.59;90.70
32733;BME280;11867;51.198;11.966;2023-03-08T05:11:17;98888.38;;;3.68;90.52
32733;BME280;11867;51.198;11.966;2023-03-08T05:12:20;98882.47;;;3.76;90.06
32733;BME280;11867;51.198;11.966;2023-03-08T05:13:22;98884.63;;;3.58;90.54
32733;BME280;11867;51.198;11.966;2023-03-08T05:14:24;98875.47;;;3.08;91.93
32733;BME280;11867;51.198;11.966;2023-03-08T05:15:28;98879.50;;;3.16;92.55
32733;BME280;11867;51.198;11.966;2023-03-08T05:16:30;98875.75;;;3.27;92.11
32733;BME280;11867;51.198;11.966;2023-03-08T05:17:33;98874.66;;;3.38;92.13
32733;BME280;11867;51.198;11.966;2023-03-08T05:18:34;98874.94;;;3.47;91.71
32733;BME280;11867;51.198;11.966;2023-03-08T05:19:37;98866.56;;;3.49;91.50
32733;BME280;11867;51.198;11.966;2023-03-08T05:20:39;98861.72;;;3.30;91.44
32733;BME280;11867;51.198;11.966;2023-03-08T05:21:41;98866.03;;;3.47;91.42
32733;BME280;11867;51.198;11.966;2023-03-08T05:22:43;98862.81;;;3.60;90.54
32733;BME280;11867;51.198;11.966;2023-03-08T05:23:59;98863.06;;;3.69;90.28
32733;BME280;11867;51.198;11.966;2023-03-08T05:25:00;98853.63;;;3.76;89.76
32733;BME280;11867;51.198;11.966;2023-03-08T05:26:04;98859.28;;;3.85;88.87
32733;BME280;11867;51.198;11.966;2023-03-08T05:27:06;98854.69;;;3.80;88.85
32733;BME280;11867;51.198;11.966;2023-03-08T05:28:09;98859.28;;;3.75;88.25
32733;BME280;11867;51.198;11.966;2023-03-08T05:29:15;98857.66;;;3.74;88.43
32733;BME280;11867;51.198;11.966;2023-03-08T05:30:18;98855.47;;;3.86;88.49
32733;BME280;11867;51.198;11.966;2023-03-08T05:31:21;98855.50;;;3.76;88.26
32733;BME280;11867;51.198;11.966;2023-03-08T05:32:24;98855.78;;;3.84;88.25
32733;BME280;11867;51.198;11.966;2023-03-08T05:33:25;98854.69;;;3.91;88.22